Time;durP1;ratioP1;P1;durP2;ratioP2;P2;SDS_P1;SDS_P2;PMS_P1;PMS_P2;Temp;Humidity;BMP_temperature;BMP_pressure;BME280_temperature;BME280_humidity;BME280_pressure;Samples;Min_cycle;Max_cycle;Signal;HPM_P1;HPM_P2
2022/10/23 00:02:05;;;;;;;;;;;;;;;;;;4969699;28;20384;-83
2022/10/23 00:04:32;;;;;;;;;;;;;;;;;;4987808;28;19968;-83
2022/10/23 00:06:58;;;;;;;;;;;;;;;;;;4970507;28;19922;-83
2022/10/23 00:09:24;;;;;;;;;;;;;;;;;;4992902;28;19977;-83
2022/10/23 00:11:50;;;;;;;;;;;;;;;;;;4971485;28;19953;-84
2022/10/23 00:14:17;;;;;;;;;;;;;;;;;;4990195;28;19949;-83
2022/10/23 00:16:43;;;;;;;;;;;;;;;;;;4969512;28;19961;-82
2022/10/23 00:19:09;;;;;;;;;;;;;;;;;;4992390;28;19917;-82
2022/10/23 00:21:35;;;;;;;;;;;;;;;;;;4991463;28;19926;-83
2022/10/23 00:24:01;;;;;;;;;;;;;;;;;;4981008;28;19936;-82
2022/10/23 00:26:28;;;;;;;;;;;;;;;;;;4997328;28;19918;-83
2022/10/23 00:28:54;;;;;;;;;;;;;;;;;;4996194;28;19941;-82
2022/10/23 00:31:20;;;;;;;;;;;;;;;;;;4986284;28;19922;-82
2022/10/23 00:33:46;;;;;;;;;;;;;;;;;;4984176;28;20263;-82
2022/10/23 00:36:12;;;;;;;;;;;;;;;;;;4955172;28;19969;-82
2022/10/23 00:38:39;;;;;;;;;;;;;;;;;;4984220;28;19917;-83
2022/10/23 00:41:05;;;;;;;;;;;;;;;;;;4971074;28;19973;-86
2022/10/23 00:43:31;;;;;;;;;;;;;;;;;;4954720;28;19961;-83
2022/10/23 00:45:57;;;;;;;;;;;;;;;;;;4981618;28;19914;-83
2022/10/23 00:48:23;;;;;;;;;;;;;;;;;;4987440;28;19961;-82
2022/10/23 00:50:50;;;;;;;;;;;;;;;;;;4969303;28;19968;-84
2022/10/23 00:53:16;;;;;;;;;;;;;;;;;;4973397;28;20764;-84
2022/10/23 00:55:45;;;;;;;;;;;;;;;;;;4961843;28;19980;-84
2022/10/23 00:58:11;;;;;;;;;;;;;;;;;;4965737;28;19953;-84
2022/10/23 01:00:37;;;;;;;;;;;;;;;;;;4986152;28;20289;-84
2022/10/23 01:03:04;;;;;;;;;;;;;;;;;;4986256;28;19926;-85
2022/10/23 01:05:30;;;;;;;;;;;;;;;;;;4954197;28;19952;-85
2022/10/23 01:07:56;;;;;;;;;;;;;;;;;;4986430;28;19957;-85
2022/10/23 01:10:23;;;;;;;;;;;;;;;;;;4980344;28;20437;-85
2022/10/23 01:12:49;;;;;;;;;;;;;;;;;;4968465;28;19968;-85
2022/10/23 01:15:15;;;;;;;;;;;;;;;;;;4989528;28;19925;-85
2022/10/23 01:17:41;;;;;;;;;;;;;;;;;;4997047;28;20361;-82
2022/10/23 01:20:07;;;;;;;;;;;;;;;;;;4988750;28;19924;-83
2022/10/23 01:22:34;;;;;;;;;;;;;;;;;;4986681;28;19937;-83
2022/10/23 01:25:01;;;;;;;;;;;;;;;;;;5003629;28;19914;-83
2022/10/23 01:27:28;;;;;;;;;;;;;;;;;;4989319;28;19922;-83
2022/10/23 01:29:54;;;;;;;;;;;;;;;;;;5000867;28;20025;-84
2022/10/23 01:32:20;;;;;;;;;;;;;;;;;;5005752;28;19914;-84
2022/10/23 01:34:46;;;;;;;;;;;;;;;;;;4994104;28;19922;-83
2022/10/23 01:37:13;;;;;;;;;;;;;;;;;;5007260;28;20110;-83
2022/10/23 01:39:39;;;;;;;;;;;;;;;;;;4989500;28;19914;-83
2022/10/23 01:42:05;;;;;;;;;;;;;;;;;;5006142;28;19918;-83
2022/10/23 01:44:31;;;;;;;;;;;;;;;;;;5008097;28;19925;-82
2022/10/23 01:46:57;;;;;;;;;;;;;;;;;;5007403;28;19922;-83
2022/10/23 01:49:26;;;;;;;;;;;;;;;;;;4971577;28;19918;-83
2022/10/23 01:51:52;;;;;;;;;;;;;;;;;;4986777;28;19957;-83
2022/10/23 01:54:18;;;;;;;;;;;;;;;;;;4970952;28;20013;-83
2022/10/23 01:56:45;;;;;;;;;;;;;;;;;;4988715;28;19925;-84
2022/10/23 01:59:11;;;;;;;;;;;;;;;;;;4992786;28;19971;-83
2022/10/23 02:01:37;;;;;;;;;;;;;;;;;;4985719;28;19961;-83
2022/10/23 02:04:03;;;;;;;;;;;;;;;;;;4951264;28;20404;-82
2022/10/23 02:06:29;;;;;;;;;;;;;;;;;;5001567;28;19941;-82
2022/10/23 02:08:56;;;;;;;;;;;;;;;;;;4981948;28;19913;-82
2022/10/23 02:11:22;;;;;;;;;;;;;;;;;;4991537;28;19922;-84
2022/10/23 02:13:48;;;;;;;;;;;;;;;;;;4993543;28;20350;-85
2022/10/23 02:16:14;;;;;;;;;;;;;;;;;;4984580;28;19918;-83
2022/10/23 02:18:40;;;;;;;;;;;;;;;;;;5005518;28;19921;-79
2022/10/23 02:21:07;;;;;;;;;;;;;;;;;;4955873;28;21163;-86
2022/10/23 02:23:33;;;;;;;;;;;;;;;;;;4988563;28;19957;-86
2022/10/23 02:25:59;;;;;;;;;;;;;;;;;;4993313;28;19984;-84
2022/10/23 02:28:26;;;;;;;;;;;;;;;;;;4987636;28;19992;-86
2022/10/23 02:30:52;;;;;;;;;;;;;;;;;;4971576;28;19949;-85
2022/10/23 02:33:19;;;;;;;;;;;;;;;;;;4955696;28;20022;-86
2022/10/23 02:35:45;;;;;;;;;;;;;;;;;;4955531;28;20025;-83
2022/10/23 02:38:11;;;;;;;;;;;;;;;;;;4972202;28;19922;-84
2022/10/23 02:40:38;;;;;;;;;;;;;;;;;;4955410;28;19972;-84
2022/10/23 02:43:04;;;;;;;;;;;;;;;;;;4971334;28;19922;-85
2022/10/23 02:45:30;;;;;;;;;;;;;;;;;;4956255;28;20358;-83
2022/10/23 02:47:56;;;;;;;;;;;;;;;;;;4970108;28;19976;-83
2022/10/23 02:50:22;;;;;;;;;;;;;;;;;;4980126;28;20354;-83
2022/10/23 02:52:49;;;;;;;;;;;;;;;;;;4993391;28;20061;-84
2022/10/23 02:55:15;;;;;;;;;;;;;;;;;;4975140;28;19954;-82
2022/10/23 02:57:41;;;;;;;;;;;;;;;;;;4955755;28;19957;-81
2022/10/23 03:00:07;;;;;;;;;;;;;;;;;;4975275;28;20392;-82
2022/10/23 03:02:33;;;;;;;;;;;;;;;;;;4993859;28;19922;-82
2022/10/23 03:05:00;;;;;;;;;;;;;;;;;;4974611;28;19962;-82
2022/10/23 03:07:26;;;;;;;;;;;;;;;;;;4990040;28;19988;-82
2022/10/23 03:09:52;;;;;;;;;;;;;;;;;;4970199;28;19956;-82
2022/10/23 03:12:18;;;;;;;;;;;;;;;;;;4987087;28;19965;-82
2022/10/23 03:14:44;;;;;;;;;;;;;;;;;;4981511;28;19922;-82
2022/10/23 03:17:10;;;;;;;;;;;;;;;;;;4974628;28;19952;-81
2022/10/23 03:19:37;;;;;;;;;;;;;;;;;;4990194;28;20365;-81
2022/10/23 03:22:03;;;;;;;;;;;;;;;;;;4964702;28;19964;-82
2022/10/23 03:24:29;;;;;;;;;;;;;;;;;;4989632;28;20340;-80
2022/10/23 03:26:55;;;;;;;;;;;;;;;;;;4986962;28;20060;-80
2022/10/23 03:29:21;;;;;;;;;;;;;;;;;;4995521;28;20028;-80
2022/10/23 03:31:48;;;;;;;;;;;;;;;;;;4975888;28;19918;-80
2022/10/23 03:34:14;;;;;;;;;;;;;;;;;;4971957;28;19976;-81
2022/10/23 03:36:40;;;;;;;;;;;;;;;;;;4988367;28;20041;-80
2022/10/23 03:39:06;;;;;;;;;;;;;;;;;;4989724;28;20646;-81
2022/10/23 03:41:33;;;;;;;;;;;;;;;;;;4987904;28;19921;-81
2022/10/23 03:43:59;;;;;;;;;;;;;;;;;;4987598;28;19953;-80
2022/10/23 03:46:25;;;;;;;;;;;;;;;;;;4974231;28;19949;-80
2022/10/23 03:48:51;;;;;;;;;;;;;;;;;;4989674;28;19955;-80
2022/10/23 03:51:17;;;;;;;;;;;;;;;;;;4968122;28;19966;-81
2022/10/23 03:53:44;;;;;;;;;;;;;;;;;;4985143;28;19972;-80
2022/10/23 03:56:10;;;;;;;;;;;;;;;;;;4985338;28;20412;-80
2022/10/23 03:58:36;;;;;;;;;;;;;;;;;;4987513;28;19926;-81
2022/10/23 04:01:02;;;;;;;;;;;;;;;;;;4985647;28;20226;-79
2022/10/23 04:03:28;;;;;;;;;;;;;;;;;;4988303;28;20064;-80
2022/10/23 04:05:54;;;;;;;;;;;;;;;;;;4982884;28;20361;-80
2022/10/23 04:08:21;;;;;;;;;;;;;;;;;;4989846;28;19985;-80
2022/10/23 04:10:47;;;;;;;;;;;;;;;;;;4984420;28;19961;-79
2022/10/23 04:13:13;;;;;;;;;;;;;;;;;;4988090;28;19926;-80
2022/10/23 04:15:39;;;;;;;;;;;;;;;;;;4969619;28;20029;-80
2022/10/23 04:18:05;;;;;;;;;;;;;;;;;;4985446;28;19956;-81
2022/10/23 04:20:32;;;;;;;;;;;;;;;;;;4969900;28;19949;-80
2022/10/23 04:22:58;;;;;;;;;;;;;;;;;;4968559;28;19953;-80
2022/10/23 04:25:24;;;;;;;;;;;;;;;;;;4982499;28;19950;-80
2022/10/23 04:27:50;;;;;;;;;;;;;;;;;;4930563;28;964098;-79
2022/10/23 04:30:16;;;;;;;;;;;;;;;;;;4950545;28;20583;-80
2022/10/23 04:32:42;;;;;;;;;;;;;;;;;;4968007;28;20048;-80
2022/10/23 04:35:09;;;;;;;;;;;;;;;;;;4964843;28;19926;-80
2022/10/23 04:37:35;;;;;;;;;;;;;;;;;;4967221;28;19992;-81
2022/10/23 04:40:01;;;;;;;;;;;;;;;;;;4951057;28;19965;-80
2022/10/23 04:42:27;;;;;;;;;;;;;;;;;;4964542;28;19964;-80
2022/10/23 04:44:53;;;;;;;;;;;;;;;;;;4964919;28;20465;-79
2022/10/23 04:47:20;;;;;;;;;;;;;;;;;;4967079;28;19957;-80
2022/10/23 04:49:46;;;;;;;;;;;;;;;;;;4966351;28;19953;-80
2022/10/23 04:52:12;;;;;;;;;;;;;;;;;;4966991;28;19964;-84
2022/10/23 04:54:38;;;;;;;;;;;;;;;;;;4965809;28;19918;-84
2022/10/23 04:57:04;;;;;;;;;;;;;;;;;;4964175;28;19973;-84
2022/10/23 04:59:31;;;;;;;;;;;;;;;;;;4966445;28;19918;-86
2022/10/23 05:01:57;;;;;;;;;;;;;;;;;;4948338;28;20386;-85
2022/10/23 05:04:23;;;;;;;;;;;;;;;;;;4947970;28;19965;-85
2022/10/23 05:06:49;;;;;;;;;;;;;;;;;;4967190;28;19954;-85
2022/10/23 05:09:15;;;;;;;;;;;;;;;;;;4964874;28;19988;-85
2022/10/23 05:11:42;;;;;;;;;;;;;;;;;;4950316;28;19984;-83
2022/10/23 05:14:08;;;;;;;;;;;;;;;;;;4964900;28;19957;-83
2022/10/23 05:16:34;;;;;;;;;;;;;;;;;;4975409;28;19973;-84
2022/10/23 05:19:00;;;;;;;;;;;;;;;;;;4966867;28;19926;-84
2022/10/23 05:21:26;;;;;;;;;;;;;;;;;;4966272;28;20038;-83
2022/10/23 05:23:53;;;;;;;;;;;;;;;;;;4971079;28;19980;-85
2022/10/23 05:26:21;;;;;;;;;;;;;;;;;;4949727;28;19960;-85
2022/10/23 05:28:47;;;;;;;;;;;;;;;;;;4975058;28;19970;-84
2022/10/23 05:31:13;;;;;;;;;;;;;;;;;;4960087;28;19964;-85
2022/10/23 05:33:40;;;;;;;;;;;;;;;;;;4970871;28;19956;-84
2022/10/23 05:36:06;;;;;;;;;;;;;;;;;;4965115;28;19930;-84
2022/10/23 05:38:32;;;;;;;;;;;;;;;;;;4981564;28;20067;-85
2022/10/23 05:40:58;;;;;;;;;;;;;;;;;;4972829;28;19957;-85
2022/10/23 05:43:26;;;;;;;;;;;;;;;;;;4973950;28;19968;-83
2022/10/23 05:45:52;;;;;;;;;;;;;;;;;;4967704;28;19961;-84
2022/10/23 05:48:18;;;;;;;;;;;;;;;;;;4968644;28;20385;-85
2022/10/23 05:50:44;;;;;;;;;;;;;;;;;;4983386;28;19918;-84
2022/10/23 05:53:12;;;;;;;;;;;;;;;;;;4968474;28;20048;-85
2022/10/23 05:55:38;;;;;;;;;;;;;;;;;;4968785;28;19959;-85
2022/10/23 05:58:04;;;;;;;;;;;;;;;;;;4968960;28;19961;-85
2022/10/23 06:00:30;;;;;;;;;;;;;;;;;;4953487;28;19922;-84
2022/10/23 06:02:56;;;;;;;;;;;;;;;;;;4967366;28;19953;-84
2022/10/23 06:05:23;;;;;;;;;;;;;;;;;;4986988;28;20053;-84
2022/10/23 06:07:49;;;;;;;;;;;;;;;;;;4983777;28;19956;-84
2022/10/23 06:10:15;;;;;;;;;;;;;;;;;;4949394;28;20369;-85
2022/10/23 06:12:41;;;;;;;;;;;;;;;;;;4971465;28;20020;-84
2022/10/23 06:15:07;;;;;;;;;;;;;;;;;;4970213;28;19976;-84
2022/10/23 06:17:34;;;;;;;;;;;;;;;;;;4969345;28;19987;-84
2022/10/23 06:20:01;;;;;;;;;;;;;;;;;;4985339;28;19964;-83
2022/10/23 06:22:27;;;;;;;;;;;;;;;;;;4973224;28;19957;-83
2022/10/23 06:24:53;;;;;;;;;;;;;;;;;;4973126;28;20025;-83
2022/10/23 06:27:19;;;;;;;;;;;;;;;;;;4968894;28;19968;-85
2022/10/23 06:29:46;;;;;;;;;;;;;;;;;;4980457;28;20341;-85
2022/10/23 06:32:12;;;;;;;;;;;;;;;;;;4959543;28;19961;-85
2022/10/23 06:34:38;;;;;;;;;;;;;;;;;;4982597;28;19949;-84
2022/10/23 06:37:04;;;;;;;;;;;;;;;;;;4966600;28;20012;-85
2022/10/23 06:39:30;;;;;;;;;;;;;;;;;;4987451;28;19948;-85
2022/10/23 06:41:57;;;;;;;;;;;;;;;;;;4989593;28;19950;-84
2022/10/23 06:44:23;;;;;;;;;;;;;;;;;;4966071;28;20699;-83
2022/10/23 06:46:50;;;;;;;;;;;;;;;;;;4967390;28;19953;-83
2022/10/23 06:49:16;;;;;;;;;;;;;;;;;;4984925;28;19964;-83
2022/10/23 06:51:42;;;;;;;;;;;;;;;;;;4985931;28;20406;-82
2022/10/23 06:54:08;;;;;;;;;;;;;;;;;;4962432;28;19953;-82
2022/10/23 06:56:35;;;;;;;;;;;;;;;;;;4985095;28;20496;-83
2022/10/23 06:59:01;;;;;;;;;;;;;;;;;;4972367;28;19914;-85
2022/10/23 07:01:27;;;;;;;;;;;;;;;;;;4988183;28;19960;-85
2022/10/23 07:03:53;;;;;;;;;;;;;;;;;;4988591;28;19948;-84
2022/10/23 07:06:19;;;;;;;;;;;;;;;;;;4988587;28;19991;-86
2022/10/23 07:08:46;;;;;;;;;;;;;;;;;;4972923;28;19969;-85
2022/10/23 07:11:12;;;;;;;;;;;;;;;;;;4978706;28;20369;-86
2022/10/23 07:13:38;;;;;;;;;;;;;;;;;;4988937;28;20421;-85
2022/10/23 07:16:04;;;;;;;;;;;;;;;;;;4987133;28;19961;-81
2022/10/23 07:18:31;;;;;;;;;;;;;;;;;;4972758;28;19968;-81
2022/10/23 07:20:57;;;;;;;;;;;;;;;;;;4987384;28;19953;-81
2022/10/23 07:23:23;;;;;;;;;;;;;;;;;;4987126;28;19925;-80
2022/10/23 07:25:49;;;;;;;;;;;;;;;;;;4984880;28;20719;-80
2022/10/23 07:28:18;;;;;;;;;;;;;;;;;;4951652;28;19968;-81
2022/10/23 07:30:45;;;;;;;;;;;;;;;;;;4984816;28;19964;-83
2022/10/23 07:33:12;;;;;;;;;;;;;;;;;;4950545;28;19961;-88
2022/10/23 07:35:38;;;;;;;;;;;;;;;;;;4968872;28;19972;-84
2022/10/23 07:38:04;;;;;;;;;;;;;;;;;;4953013;28;19949;-83
2022/10/23 07:40:31;;;;;;;;;;;;;;;;;;4984949;28;20663;-84
2022/10/23 07:42:57;;;;;;;;;;;;;;;;;;4986810;28;19954;-85
2022/10/23 07:45:23;;;;;;;;;;;;;;;;;;4968919;28;19956;-84
2022/10/23 07:47:50;;;;;;;;;;;;;;;;;;4987595;28;19980;-84
2022/10/23 07:50:16;;;;;;;;;;;;;;;;;;4987971;28;19942;-85
2022/10/23 07:52:42;;;;;;;;;;;;;;;;;;4987044;28;19956;-84
2022/10/23 07:55:09;;;;;;;;;;;;;;;;;;4989014;28;20285;-85
2022/10/23 07:57:35;;;;;;;;;;;;;;;;;;4976787;28;19957;-85
2022/10/23 08:00:01;;;;;;;;;;;;;;;;;;4968231;28;19926;-85
2022/10/23 08:02:27;;;;;;;;;;;;;;;;;;4987099;28;19969;-83
2022/10/23 08:04:54;;;;;;;;;;;;;;;;;;4951728;28;19925;-84
2022/10/23 08:07:20;;;;;;;;;;;;;;;;;;4987973;28;19997;-85
2022/10/23 08:09:46;;;;;;;;;;;;;;;;;;4983868;28;19949;-85
2022/10/23 08:12:16;;;;;;;;;;;;;;;;;;4966621;28;19937;-84
2022/10/23 08:14:43;;;;;;;;;;;;;;;;;;4994231;28;19946;-84
2022/10/23 08:17:10;;;;;;;;;;;;;;;;;;4967084;28;19981;-85
2022/10/23 08:19:36;;;;;;;;;;;;;;;;;;4968491;28;20004;-84
2022/10/23 08:22:02;;;;;;;;;;;;;;;;;;4965752;28;20413;-84
2022/10/23 08:24:28;;;;;;;;;;;;;;;;;;4968586;28;19953;-85
2022/10/23 08:26:55;;;;;;;;;;;;;;;;;;4984190;28;19961;-85
2022/10/23 08:29:21;;;;;;;;;;;;;;;;;;4984665;28;19976;-85
2022/10/23 08:31:48;;;;;;;;;;;;;;;;;;4983338;28;20394;-85
2022/10/23 08:34:14;;;;;;;;;;;;;;;;;;4971338;28;19980;-85
2022/10/23 08:36:41;;;;;;;;;;;;;;;;;;4969267;28;19968;-87
2022/10/23 08:39:07;;;;;;;;;;;;;;;;;;4984189;28;19960;-85
2022/10/23 08:41:33;;;;;;;;;;;;;;;;;;4968496;28;19949;-85
2022/10/23 08:43:59;;;;;;;;;;;;;;;;;;4981577;28;19968;-87
2022/10/23 08:46:25;;;;;;;;;;;;;;;;;;4988281;28;20008;-88
2022/10/23 08:48:51;;;;;;;;;;;;;;;;;;4969329;28;20330;-84
2022/10/23 08:51:18;;;;;;;;;;;;;;;;;;4994179;28;19959;-84
2022/10/23 08:53:44;;;;;;;;;;;;;;;;;;4972332;28;19952;-81
2022/10/23 08:56:10;;;;;;;;;;;;;;;;;;4968192;28;19929;-84
2022/10/23 08:58:37;;;;;;;;;;;;;;;;;;4971135;28;20003;-89
2022/10/23 09:01:03;;;;;;;;;;;;;;;;;;4967573;28;19995;-82
2022/10/23 09:03:29;;;;;;;;;;;;;;;;;;4972481;28;20016;-84
2022/10/23 09:05:57;;;;;;;;;;;;;;;;;;4978098;28;19972;-84
2022/10/23 09:08:23;;;;;;;;;;;;;;;;;;4987528;28;19984;-84
2022/10/23 09:10:49;;;;;;;;;;;;;;;;;;4966841;28;19968;-84
2022/10/23 09:13:15;;;;;;;;;;;;;;;;;;4982613;28;20002;-84
2022/10/23 09:15:41;;;;;;;;;;;;;;;;;;4991540;28;20029;-85
2022/10/23 09:18:08;;;;;;;;;;;;;;;;;;4967900;28;19965;-85
2022/10/23 09:20:34;;;;;;;;;;;;;;;;;;4988151;28;19953;-85
2022/10/23 09:23:00;;;;;;;;;;;;;;;;;;4968290;28;19961;-85
2022/10/23 09:25:26;;;;;;;;;;;;;;;;;;4961620;28;19969;-84
2022/10/23 09:27:52;;;;;;;;;;;;;;;;;;4970836;28;19964;-84
2022/10/23 09:30:19;;;;;;;;;;;;;;;;;;4972718;28;20250;-83
2022/10/23 09:32:46;;;;;;;;;;;;;;;;;;4970811;28;19957;-85
2022/10/23 09:35:12;;;;;;;;;;;;;;;;;;4980142;28;20594;-83
2022/10/23 09:37:40;;;;;;;;;;;;;;;;;;4986262;28;20018;-82
2022/10/23 09:40:06;;;;;;;;;;;;;;;;;;4967880;28;19960;-84
2022/10/23 09:42:32;;;;;;;;;;;;;;;;;;4980102;28;20378;-84
2022/10/23 09:44:58;;;;;;;;;;;;;;;;;;4985170;28;19961;-85
2022/10/23 09:47:25;;;;;;;;;;;;;;;;;;4972757;28;19948;-84
2022/10/23 09:49:51;;;;;;;;;;;;;;;;;;4974987;28;19985;-85
2022/10/23 09:52:18;;;;;;;;;;;;;;;;;;4973868;28;19922;-84
2022/10/23 09:54:44;;;;;;;;;;;;;;;;;;4986277;28;20016;-81
2022/10/23 09:57:11;;;;;;;;;;;;;;;;;;4974560;28;20008;-85
2022/10/23 09:59:37;;;;;;;;;;;;;;;;;;4988443;28;19965;-87
2022/10/23 10:02:05;;;;;;;;;;;;;;;;;;4992610;28;19914;-89
2022/10/23 10:04:32;;;;;;;;;;;;;;;;;;4959929;28;19918;-86
2022/10/23 10:07:00;;;;;;;;;;;;;;;;;;4968282;28;19949;-86
2022/10/23 10:09:26;;;;;;;;;;;;;;;;;;4991521;28;20239;-85
2022/10/23 10:11:53;;;;;;;;;;;;;;;;;;4987689;28;19926;-85
2022/10/23 10:14:19;;;;;;;;;;;;;;;;;;4971032;28;20416;-85
2022/10/23 10:16:45;;;;;;;;;;;;;;;;;;4984860;28;19930;-83
2022/10/23 10:19:11;;;;;;;;;;;;;;;;;;4987791;28;20009;-85
2022/10/23 10:21:37;;;;;;;;;;;;;;;;;;4969845;28;20048;-83
2022/10/23 10:24:04;;;;;;;;;;;;;;;;;;4984046;28;20531;-83
2022/10/23 10:26:30;;;;;;;;;;;;;;;;;;4985081;28;19972;-82
2022/10/23 10:28:56;;;;;;;;;;;;;;;;;;4981588;28;19977;-84
2022/10/23 10:31:22;;;;;;;;;;;;;;;;;;4965420;28;19945;-84
2022/10/23 10:33:48;;;;;;;;;;;;;;;;;;4984572;28;19960;-82
2022/10/23 10:36:15;;;;;;;;;;;;;;;;;;4971193;28;20436;-82
2022/10/23 10:38:41;;;;;;;;;;;;;;;;;;4987093;28;19964;-84
2022/10/23 10:41:07;;;;;;;;;;;;;;;;;;4969940;28;19981;-82
2022/10/23 10:43:33;;;;;;;;;;;;;;;;;;4986500;28;19957;-82
2022/10/23 10:45:59;;;;;;;;;;;;;;;;;;4952818;28;19964;-84
2022/10/23 10:48:25;;;;;;;;;;;;;;;;;;4986611;28;20362;-84
2022/10/23 10:50:52;;;;;;;;;;;;;;;;;;4982290;28;20063;-84
2022/10/23 10:53:18;;;;;;;;;;;;;;;;;;4984435;28;19960;-86
2022/10/23 10:55:44;;;;;;;;;;;;;;;;;;4991336;28;19979;-85
2022/10/23 10:58:10;;;;;;;;;;;;;;;;;;4995784;28;20543;-85
2022/10/23 11:00:36;;;;;;;;;;;;;;;;;;4988305;28;19956;-85
2022/10/23 11:03:03;;;;;;;;;;;;;;;;;;4961831;28;19957;-84
2022/10/23 11:05:29;;;;;;;;;;;;;;;;;;4994135;28;20377;-88
2022/10/23 11:07:56;;;;;;;;;;;;;;;;;;4990878;28;19968;-83
2022/10/23 11:10:22;;;;;;;;;;;;;;;;;;4987536;28;19957;-82
2022/10/23 11:12:48;;;;;;;;;;;;;;;;;;4986071;28;19945;-81
2022/10/23 11:15:14;;;;;;;;;;;;;;;;;;4969756;28;20397;-83
2022/10/23 11:17:40;;;;;;;;;;;;;;;;;;4986316;28;20385;-82
2022/10/23 11:20:07;;;;;;;;;;;;;;;;;;4968462;28;19984;-82
2022/10/23 11:22:33;;;;;;;;;;;;;;;;;;4986192;28;19992;-81
2022/10/23 11:24:59;;;;;;;;;;;;;;;;;;4985231;28;19968;-81
2022/10/23 11:27:25;;;;;;;;;;;;;;;;;;4986114;28;20638;-80
2022/10/23 11:29:52;;;;;;;;;;;;;;;;;;4968620;28;19965;-81
2022/10/23 11:32:18;;;;;;;;;;;;;;;;;;4987949;28;19984;-81
2022/10/23 11:34:44;;;;;;;;;;;;;;;;;;4956999;28;20482;-82
2022/10/23 11:37:10;;;;;;;;;;;;;;;;;;4986847;28;20452;-79
2022/10/23 11:39:36;;;;;;;;;;;;;;;;;;4985954;28;19973;-80
2022/10/23 11:42:03;;;;;;;;;;;;;;;;;;4984567;28;19995;-80
2022/10/23 11:44:29;;;;;;;;;;;;;;;;;;4968308;28;20019;-80
2022/10/23 11:46:55;;;;;;;;;;;;;;;;;;4985076;28;19952;-80
2022/10/23 11:49:22;;;;;;;;;;;;;;;;;;4973955;28;19957;-81
2022/10/23 11:51:49;;;;;;;;;;;;;;;;;;4967180;28;19921;-82
2022/10/23 11:54:15;;;;;;;;;;;;;;;;;;4982028;28;19968;-83
2022/10/23 11:56:41;;;;;;;;;;;;;;;;;;4983924;28;20017;-81
2022/10/23 11:59:07;;;;;;;;;;;;;;;;;;4984115;28;20025;-80
2022/10/23 12:01:33;;;;;;;;;;;;;;;;;;4970057;28;20031;-80
2022/10/23 12:04:00;;;;;;;;;;;;;;;;;;4984130;28;20301;-78
2022/10/23 12:06:26;;;;;;;;;;;;;;;;;;4971289;28;20342;-78
2022/10/23 12:08:52;;;;;;;;;;;;;;;;;;4984396;28;20326;-79
2022/10/23 12:11:19;;;;;;;;;;;;;;;;;;4969232;28;20367;-80
2022/10/23 12:13:45;;;;;;;;;;;;;;;;;;4968596;28;19960;-79
2022/10/23 12:16:13;;;;;;;;;;;;;;;;;;4985960;28;19956;-82
2022/10/23 12:18:40;;;;;;;;;;;;;;;;;;4985719;28;19925;-84
2022/10/23 12:21:06;;;;;;;;;;;;;;;;;;4971680;28;20015;-82
2022/10/23 12:23:32;;;;;;;;;;;;;;;;;;4969185;28;19957;-83
2022/10/23 12:25:58;;;;;;;;;;;;;;;;;;4983770;28;19972;-83
2022/10/23 12:28:24;;;;;;;;;;;;;;;;;;4951155;28;19980;-82
2022/10/23 12:30:50;;;;;;;;;;;;;;;;;;4984771;28;19957;-82
2022/10/23 12:33:17;;;;;;;;;;;;;;;;;;4968596;28;20001;-84
2022/10/23 12:35:46;;;;;;;;;;;;;;;;;;4982700;28;19957;-84
2022/10/23 12:38:13;;;;;;;;;;;;;;;;;;4982750;28;20585;-84
2022/10/23 12:40:39;;;;;;;;;;;;;;;;;;4969122;28;19960;-82
2022/10/23 12:43:05;;;;;;;;;;;;;;;;;;4967707;28;19957;-82
2022/10/23 12:45:31;;;;;;;;;;;;;;;;;;4986393;28;19995;-83
2022/10/23 12:47:57;;;;;;;;;;;;;;;;;;4968191;28;19971;-83
2022/10/23 12:50:24;;;;;;;;;;;;;;;;;;4957481;28;19999;-83
2022/10/23 12:52:50;;;;;;;;;;;;;;;;;;4984448;28;19957;-84
2022/10/23 12:55:16;;;;;;;;;;;;;;;;;;4953163;28;19964;-83
2022/10/23 12:57:42;;;;;;;;;;;;;;;;;;4968418;28;19929;-84
2022/10/23 13:00:09;;;;;;;;;;;;;;;;;;4985558;28;19953;-83
2022/10/23 13:02:35;;;;;;;;;;;;;;;;;;4986326;28;20291;-83
2022/10/23 13:05:01;;;;;;;;;;;;;;;;;;4959138;28;19922;-83
2022/10/23 13:07:28;;;;;;;;;;;;;;;;;;4979853;28;19949;-85
2022/10/23 13:09:54;;;;;;;;;;;;;;;;;;4968366;28;19969;-83
2022/10/23 13:12:23;;;;;;;;;;;;;;;;;;4956851;28;19953;-84
2022/10/23 13:14:49;;;;;;;;;;;;;;;;;;4986631;28;19914;-84
2022/10/23 13:17:15;;;;;;;;;;;;;;;;;;4984271;28;20436;-85
2022/10/23 13:19:41;;;;;;;;;;;;;;;;;;4987014;28;20000;-83
2022/10/23 13:22:07;;;;;;;;;;;;;;;;;;4985468;28;19953;-85
2022/10/23 13:24:34;;;;;;;;;;;;;;;;;;4988020;28;19996;-86
2022/10/23 13:27:00;;;;;;;;;;;;;;;;;;4967813;28;19936;-88
2022/10/23 13:29:26;;;;;;;;;;;;;;;;;;4950397;28;19957;-87
2022/10/23 13:31:52;;;;;;;;;;;;;;;;;;4949527;28;19918;-88
2022/10/23 13:34:19;;;;;;;;;;;;;;;;;;4967119;28;20557;-88
2022/10/23 13:36:45;;;;;;;;;;;;;;;;;;4950455;28;19926;-83
2022/10/23 13:39:11;;;;;;;;;;;;;;;;;;4948265;28;19914;-87
2022/10/23 13:41:37;;;;;;;;;;;;;;;;;;4957852;28;20017;-86
2022/10/23 13:44:04;;;;;;;;;;;;;;;;;;4949141;28;19952;-87
2022/10/23 13:46:33;;;;;;;;;;;;;;;;;;4951241;28;20039;-87
2022/10/23 13:48:59;;;;;;;;;;;;;;;;;;4947629;28;19914;-87
2022/10/23 13:51:26;;;;;;;;;;;;;;;;;;4953367;28;19917;-87
2022/10/23 13:53:52;;;;;;;;;;;;;;;;;;4949631;28;19977;-87
2022/10/23 13:56:18;;;;;;;;;;;;;;;;;;4964780;28;19954;-87
2022/10/23 13:58:47;;;;;;;;;;;;;;;;;;4964208;28;19925;-87
2022/10/23 14:01:13;;;;;;;;;;;;;;;;;;4965953;28;19993;-87
2022/10/23 14:03:39;;;;;;;;;;;;;;;;;;4948687;28;20398;-87
2022/10/23 14:06:05;;;;;;;;;;;;;;;;;;4948435;28;19926;-88
2022/10/23 14:08:31;;;;;;;;;;;;;;;;;;4970210;28;20307;-87
2022/10/23 14:10:58;;;;;;;;;;;;;;;;;;4951102;28;19930;-87
2022/10/23 14:13:24;;;;;;;;;;;;;;;;;;4954260;28;19997;-87
2022/10/23 14:15:50;;;;;;;;;;;;;;;;;;4960493;28;20343;-87
2022/10/23 14:18:18;;;;;;;;;;;;;;;;;;4954619;28;19926;-87
2022/10/23 14:20:44;;;;;;;;;;;;;;;;;;4954682;28;19922;-87
2022/10/23 14:23:11;;;;;;;;;;;;;;;;;;4956623;28;19977;-87
2022/10/23 14:25:37;;;;;;;;;;;;;;;;;;4954801;28;19970;-87
2022/10/23 14:28:03;;;;;;;;;;;;;;;;;;4970784;28;20021;-87
2022/10/23 14:30:29;;;;;;;;;;;;;;;;;;4973710;28;19962;-87
2022/10/23 14:32:56;;;;;;;;;;;;;;;;;;4947775;28;19918;-90
2022/10/23 14:35:22;;;;;;;;;;;;;;;;;;4976582;28;19973;-87
2022/10/23 14:37:48;;;;;;;;;;;;;;;;;;4970768;28;20049;-84
2022/10/23 14:40:15;;;;;;;;;;;;;;;;;;4973053;28;19922;-87
2022/10/23 14:42:41;;;;;;;;;;;;;;;;;;4956680;28;20004;-87
2022/10/23 14:45:07;;;;;;;;;;;;;;;;;;4971065;28;19968;-87
2022/10/23 14:47:33;;;;;;;;;;;;;;;;;;4979782;28;19922;-87
2022/10/23 14:50:00;;;;;;;;;;;;;;;;;;4944169;28;20031;-88
2022/10/23 14:52:26;;;;;;;;;;;;;;;;;;4952944;28;20286;-86
2022/10/23 14:54:52;;;;;;;;;;;;;;;;;;4945078;28;20024;-85
2022/10/23 14:57:20;;;;;;;;;;;;;;;;;;4962010;28;20036;-86
2022/10/23 14:59:46;;;;;;;;;;;;;;;;;;4987503;28;20608;-84
2022/10/23 15:02:12;;;;;;;;;;;;;;;;;;4971023;28;19960;-85
2022/10/23 15:04:39;;;;;;;;;;;;;;;;;;4983510;28;19918;-84
2022/10/23 15:07:05;;;;;;;;;;;;;;;;;;4952632;28;21523;-85
2022/10/23 15:09:34;;;;;;;;;;;;;;;;;;4970844;28;20527;-86
2022/10/23 15:12:00;;;;;;;;;;;;;;;;;;4985248;28;20052;-85
2022/10/23 15:14:26;;;;;;;;;;;;;;;;;;4973591;28;19965;-83
2022/10/23 15:16:52;;;;;;;;;;;;;;;;;;4968040;28;19954;-82
2022/10/23 15:19:18;;;;;;;;;;;;;;;;;;4971350;28;19953;-82
2022/10/23 15:21:45;;;;;;;;;;;;;;;;;;4958616;28;19953;-87
2022/10/23 15:24:11;;;;;;;;;;;;;;;;;;4954692;28;19925;-78
2022/10/23 15:26:38;;;;;;;;;;;;;;;;;;4983694;28;20378;-78
2022/10/23 15:29:05;;;;;;;;;;;;;;;;;;4989554;28;19997;-78
2022/10/23 15:31:31;;;;;;;;;;;;;;;;;;4971441;28;19961;-77
2022/10/23 15:33:57;;;;;;;;;;;;;;;;;;4986688;28;19980;-79
2022/10/23 15:36:24;;;;;;;;;;;;;;;;;;4974894;28;19921;-76
2022/10/23 15:38:50;;;;;;;;;;;;;;;;;;4971638;28;19922;-77
2022/10/23 15:41:16;;;;;;;;;;;;;;;;;;4987446;28;20389;-77
2022/10/23 15:43:42;;;;;;;;;;;;;;;;;;4984415;28;19961;-78
2022/10/23 15:46:08;;;;;;;;;;;;;;;;;;4951214;28;19957;-79
2022/10/23 15:48:35;;;;;;;;;;;;;;;;;;4971433;28;19949;-78
2022/10/23 15:51:01;;;;;;;;;;;;;;;;;;4967531;28;19944;-78
2022/10/23 15:53:27;;;;;;;;;;;;;;;;;;4968249;28;20319;-77
2022/10/23 15:55:54;;;;;;;;;;;;;;;;;;4966793;28;20464;-78
2022/10/23 15:58:20;;;;;;;;;;;;;;;;;;4967652;28;19957;-78
2022/10/23 16:00:47;;;;;;;;;;;;;;;;;;4966850;28;19925;-79
2022/10/23 16:03:13;;;;;;;;;;;;;;;;;;4984973;28;20566;-79
2022/10/23 16:05:39;;;;;;;;;;;;;;;;;;4983596;28;19969;-80
2022/10/23 16:08:05;;;;;;;;;;;;;;;;;;4982638;28;20460;-80
2022/10/23 16:10:32;;;;;;;;;;;;;;;;;;4983907;28;20008;-80
2022/10/23 16:12:58;;;;;;;;;;;;;;;;;;4991206;28;19928;-78
2022/10/23 16:15:24;;;;;;;;;;;;;;;;;;4969686;28;19925;-79
2022/10/23 16:17:50;;;;;;;;;;;;;;;;;;4951668;28;19981;-79
2022/10/23 16:20:16;;;;;;;;;;;;;;;;;;4969648;28;19996;-78
2022/10/23 16:22:43;;;;;;;;;;;;;;;;;;4969115;28;19962;-79
2022/10/23 16:25:09;;;;;;;;;;;;;;;;;;4984721;28;19988;-78
2022/10/23 16:27:36;;;;;;;;;;;;;;;;;;4971570;28;20357;-78
2022/10/23 16:30:04;;;;;;;;;;;;;;;;;;4953392;28;19960;-77
2022/10/23 16:32:30;;;;;;;;;;;;;;;;;;4971783;28;19977;-77
2022/10/23 16:34:57;;;;;;;;;;;;;;;;;;4956611;28;19922;-78
2022/10/23 16:37:23;;;;;;;;;;;;;;;;;;4986973;28;19930;-78
2022/10/23 16:39:49;;;;;;;;;;;;;;;;;;4968142;28;20727;-79